Hovedside
METAR-TAF:

METAR-TAF

Lufthavner :

N'Djamena internasjonale lufthavn

N'Djamena, Tsjad

breddegrad: 12-08N, lengdegrad: 015-02E, høyde over havet: 295 m

Gjeldene værobservasjon

Denne rapporten ble laget for 49 minutter siden, klokken 15:00 UTC
Vind 6 kt fra skiftende retning
Temperatur 38°C
Luftfuktighet 17%
Trykk 1007 hPa
Sikt 10 km eller mer
ingen skyer under 1500 m og ingen bygeskyer

METAR: FTTJ 201500Z VRB06KT CAVOK 38/09 Q1007 NOSIG

Tid: 16:49 (15:49 UTC)

Varsel

Denne rapporten ble laget for 4 timer og 49 minutter siden, klokken 11:00 UTC
Varsel gyldig fra 20. klokken 12 UTC til 21. klokken 18 UTC
Vind 5 kt fra skiftende retning
Sikt: 8000 m
Midlertidig
fra 21. klokken 05 UTC til 21. klokken 08 UTC
Sikt: 4000 m
dis

TAF: FTTJ 201100Z 2012/2118 VRB05KT 8000 NSC TEMPO 2105/2108 4000 HZ

Værobservasjoner og værvarsel for over 4000 flyplasser (METAR- og TAF-rapporter).

Tilgjengelige stasjoner er representert av de røde og gule prikkene på kartet.

Hold musepekeren over prikken for å se navnet på stasjonen.

Klikk så for å se værobservasjoner og -varsler.

For å forandre kartet kan du klikke på den grønne knappen med svart kryss for å zoome inn, på den grønne knappen med strek for å zoome ut, eller på de grønne pilene for å se tilstøtende kart.


METAR-TAF: